Time;durP1;ratioP1;P1;durP2;ratioP2;P2;SDS_P1;SDS_P2;PMS_P1;PMS_P2;Temp;Humidity;BMP_temperature;BMP_pressure;BME280_temperature;BME280_humidity;BME280_pressure;Samples;Min_cycle;Max_cycle;Signal;HPM_P1;HPM_P2
2023/04/01 00:00:52;;;;;;;29.00;11.07;;;;;;;-144.73;100.00;54557.53;6162918;23;20011;-77
2023/04/01 00:03:18;;;;;;;29.90;10.15;;;;;;;-144.73;100.00;54563.69;6160843;23;20005;-76
2023/04/01 00:05:45;;;;;;;31.80;12.07;;;;;;;-144.73;100.00;54547.28;6151293;23;20009;-74
2023/04/01 00:08:11;;;;;;;32.75;12.88;;;;;;;-144.73;100.00;54576.00;6188902;23;20016;-77
2023/04/01 00:10:36;;;;;;;25.33;11.10;;;;;;;-144.73;100.00;54592.44;6186438;23;20001;-77
2023/04/01 00:13:03;;;;;;;27.92;11.90;;;;;;;-144.73;100.00;54584.22;6187503;23;20005;-77
2023/04/01 00:15:28;;;;;;;36.60;12.43;;;;;;;-144.73;100.00;54561.63;6160642;23;19993;-76
2023/04/01 00:17:54;;;;;;;30.23;11.75;;;;;;;-144.73;100.00;54578.06;6185902;23;20012;-76
2023/04/01 00:20:20;;;;;;;29.35;10.50;;;;;;;-144.73;100.00;54547.28;6187912;23;20060;-76
2023/04/01 00:22:46;;;;;;;27.52;10.10;;;;;;;-144.73;100.00;54600.63;6161509;23;20016;-77
2023/04/01 00:25:11;;;;;;;30.10;11.73;;;;;;;-144.73;100.00;54571.91;6187002;23;20077;-76
2023/04/01 00:27:37;;;;;;;28.55;11.07;;;;;;;-144.73;100.00;54563.69;6163529;23;20050;-78
2023/04/01 00:30:03;;;;;;;36.35;12.93;;;;;;;-144.73;100.00;54588.31;6188655;23;20013;-78
2023/04/01 00:32:30;;;;;;;29.95;10.98;;;;;;;-144.73;100.00;54600.63;6189671;23;20033;-77
2023/04/01 00:34:55;;;;;;;29.80;10.63;;;;;;;-144.73;100.00;54596.53;6186887;23;20007;-76
2023/04/01 00:37:22;;;;;;;39.88;12.93;;;;;;;-144.73;100.00;54571.91;6162509;23;20024;-75
2023/04/01 00:39:49;;;;;;;36.40;14.30;;;;;;;-144.73;100.00;54571.91;6189183;23;20090;-78
2023/04/01 00:42:15;;;;;;;36.22;12.63;;;;;;;-144.73;100.00;54555.47;6173638;23;20037;-78
2023/04/01 00:44:51;;;;;;;31.35;10.82;;;;;;;-144.73;100.00;54600.63;6175113;23;20005;-77
2023/04/01 00:47:17;;;;;;;31.85;12.27;;;;;;;-144.73;100.00;54571.91;6199083;23;20005;-76
2023/04/01 00:49:46;;;;;;;35.83;12.27;;;;;;;-144.73;100.00;54606.78;6197514;23;20031;-80
2023/04/01 00:52:15;;;;;;;33.92;13.20;;;;;;;-144.73;100.00;54600.63;6168581;23;19997;-78
2023/04/01 00:54:44;;;;;;;36.75;13.75;;;;;;;-144.73;100.00;54600.63;6174480;23;20095;-77
2023/04/01 00:57:14;;;;;;;49.70;14.63;;;;;;;-144.73;100.00;54612.97;6173004;23;19997;-78
2023/04/01 00:59:43;;;;;;;42.35;14.75;;;;;;;-144.73;100.00;54584.22;6172226;23;20005;-79
2023/04/01 01:02:11;;;;;;;35.30;13.60;;;;;;;-144.73;100.00;54551.38;6197510;23;20001;-76
2023/04/01 01:04:37;;;;;;;41.45;13.68;;;;;;;-144.73;100.00;54567.81;6199076;23;20003;-78
2023/04/01 01:07:40;;;;;;;36.13;11.18;;;;;;;-144.73;100.00;54522.63;6193020;23;20001;-77
2023/04/01 01:10:23;;;;;;;41.40;13.82;;;;;;;-144.73;100.00;54584.22;6186558;23;20381;-76
2023/04/01 01:13:07;;;;;;;29.70;12.85;;;;;;;-144.73;100.00;54596.53;6163637;23;20005;-77
2023/04/01 01:15:45;;;;;;;41.17;12.70;;;;;;;-144.73;100.00;54539.06;6195742;23;20005;-78
2023/04/01 01:18:29;;;;;;;44.85;13.98;;;;;;;-144.73;100.00;54567.81;6170195;23;20087;-78
2023/04/01 01:21:37;;;;;;;38.00;11.40;;;;;;;-144.73;100.00;54584.22;6197088;23;20021;-76
2023/04/01 01:24:25;;;;;;;38.08;11.95;;;;;;;-144.73;100.00;54586.28;6131512;23;20005;-77
2023/04/01 01:26:53;;;;;;;32.05;12.35;;;;;;;-144.73;100.00;54588.31;6198727;23;20019;-76
2023/04/01 01:29:56;;;;;;;36.70;12.05;;;;;;;-144.73;100.00;54584.22;6197550;23;20005;-78
2023/04/01 01:32:38;;;;;;;40.58;14.60;;;;;;;-144.73;100.00;54592.44;6197763;23;20385;-79
2023/04/01 01:35:26;;;;;;;34.72;13.88;;;;;;;-144.73;100.00;54592.44;6197338;23;20418;-79
2023/04/01 01:37:57;;;;;;;44.55;14.88;;;;;;;-144.73;100.00;54596.53;6197990;23;20005;-79
2023/04/01 01:40:26;;;;;;;39.70;14.63;;;;;;;-144.73;100.00;54580.13;6166872;23;20012;-81
2023/04/01 01:42:56;;;;;;;35.75;12.80;;;;;;;-144.73;100.00;54584.22;6169558;23;20001;-78
2023/04/01 01:45:24;;;;;;;36.53;12.38;;;;;;;-144.73;100.00;54588.31;6195247;23;20100;-76
2023/04/01 01:47:51;;;;;;;26.90;11.88;;;;;;;-144.73;100.00;54600.63;6195699;23;20008;-77
2023/04/01 01:50:19;;;;;;;37.10;13.35;;;;;;;-144.73;100.00;54563.69;6147779;23;20036;-78
2023/04/01 01:52:45;;;;;;;33.78;12.25;;;;;;;-144.73;100.00;54539.06;6168116;23;20021;-77
2023/04/01 01:55:45;;;;;;;41.60;13.77;;;;;;;-144.73;100.00;54547.28;6189661;23;20056;-77
2023/04/01 01:58:40;;;;;;;35.28;12.23;;;;;;;-144.73;100.00;54567.81;6144255;23;20000;-77
2023/04/01 02:01:10;;;;;;;44.25;14.05;;;;;;;-144.73;100.00;54588.31;6156829;23;20323;-77
2023/04/01 02:03:37;;;;;;;36.30;13.25;;;;;;;-144.73;100.00;54588.31;6190855;23;20060;-77
2023/04/01 02:06:07;;;;;;;34.75;11.70;;;;;;;-144.73;100.00;54617.06;6179820;23;20473;-76
2023/04/01 02:08:40;;;;;;;35.50;11.40;;;;;;;-144.73;100.00;54559.59;6189010;23;20011;-76
2023/04/01 02:11:11;;;;;;;36.63;12.68;;;;;;;-144.73;100.00;54567.81;6158267;23;20047;-76
2023/04/01 02:13:42;;;;;;;35.80;12.60;;;;;;;-144.73;100.00;54596.53;6171976;23;20013;-77
2023/04/01 02:16:16;;;;;;;41.33;13.07;;;;;;;-144.73;100.00;54649.91;6162020;23;20031;-78
2023/04/01 02:18:44;;;;;;;32.95;12.77;;;;;;;-144.73;100.00;54617.06;6194120;23;20001;-78
2023/04/01 02:21:11;;;;;;;27.45;11.07;;;;;;;-144.73;100.00;54600.63;6159836;23;20012;-76
2023/04/01 02:23:37;;;;;;;31.35;12.40;;;;;;;-144.73;100.00;54596.53;6193842;23;20065;-77
2023/04/01 02:26:07;;;;;;;33.40;11.23;;;;;;;-144.73;100.00;54600.63;6184377;23;20021;-78
2023/04/01 02:28:36;;;;;;;33.80;11.93;;;;;;;-144.73;100.00;54608.84;6144224;23;20016;-77
2023/04/01 02:31:04;;;;;;;34.33;13.27;;;;;;;-144.73;100.00;54571.91;6161296;23;20055;-77
2023/04/01 02:33:31;;;;;;;31.30;12.25;;;;;;;-144.73;100.00;54596.53;6166970;23;20326;-77
2023/04/01 02:35:58;;;;;;;44.65;12.85;;;;;;;-144.73;100.00;54592.44;6183778;23;20017;-76
2023/04/01 02:38:23;;;;;;;21.50;9.63;;;;;;;-144.73;100.00;54592.44;6164286;23;20001;-77
2023/04/01 02:40:55;;;;;;;34.97;14.40;;;;;;;-144.73;100.00;54573.97;6177258;23;20149;-76
2023/04/01 02:43:21;;;;;;;45.15;15.60;;;;;;;-144.73;100.00;54592.44;6165803;23;20082;-77
2023/04/01 02:45:46;;;;;;;40.10;15.45;;;;;;;-144.73;100.00;54588.31;6184685;23;20354;-78
2023/04/01 02:48:13;;;;;;;50.92;15.52;;;;;;;-144.73;100.00;54555.47;6198076;23;20031;-80
2023/04/01 02:50:39;;;;;;;30.92;14.45;;;;;;;-144.73;100.00;54588.31;6193564;23;20017;-77
2023/04/01 02:53:06;;;;;;;47.75;16.85;;;;;;;-144.73;100.00;54617.06;6199014;23;20007;-79
2023/04/01 02:55:32;;;;;;;47.60;17.83;;;;;;;-144.73;100.00;54588.31;6191794;23;20016;-78
2023/04/01 02:57:58;;;;;;;45.88;16.85;;;;;;;-144.73;100.00;54600.63;6176982;23;20001;-78
2023/04/01 03:00:25;;;;;;;42.60;17.95;;;;;;;-144.73;100.00;54576.00;6198085;23;20013;-79
2023/04/01 03:02:52;;;;;;;53.80;18.25;;;;;;;-144.73;100.00;54617.06;6176884;23;20001;-79
2023/04/01 03:05:20;;;;;;;42.63;16.55;;;;;;;-144.73;100.00;54580.13;6196440;23;20012;-77
2023/04/01 03:07:46;;;;;;;44.67;17.17;;;;;;;-144.73;100.00;54588.31;6172835;23;20016;-77
2023/04/01 03:10:13;;;;;;;43.80;18.08;;;;;;;-144.73;100.00;54594.47;6192435;23;20105;-78
2023/04/01 03:12:38;;;;;;;52.80;18.17;;;;;;;-144.73;100.00;54592.44;6195037;23;20012;-77
2023/04/01 03:15:04;;;;;;;50.42;17.88;;;;;;;-144.73;100.00;54604.75;6165737;23;20017;-79
2023/04/01 03:17:30;;;;;;;40.85;16.77;;;;;;;-144.73;100.00;54580.13;6173296;23;20001;-78
2023/04/01 03:19:55;;;;;;;42.08;17.88;;;;;;;-144.73;100.00;54596.53;6169728;23;20017;-80
2023/04/01 03:22:21;;;;;;;37.63;16.80;;;;;;;-144.73;100.00;54561.63;6170164;23;20001;-80
2023/04/01 03:24:48;;;;;;;38.92;17.67;;;;;;;-144.73;100.00;54596.53;6167491;23;20020;-80
2023/04/01 03:27:13;;;;;;;46.20;17.15;;;;;;;-144.73;100.00;54567.81;6191745;23;20056;-78
2023/04/01 03:29:38;;;;;;;40.80;17.42;;;;;;;-144.73;100.00;54610.91;6186612;23;20005;-76
2023/04/01 03:32:04;;;;;;;35.05;15.43;;;;;;;-144.73;100.00;54592.44;6191039;23;20032;-78
2023/04/01 03:34:29;;;;;;;47.05;16.63;;;;;;;-144.73;100.00;54563.69;6163891;23;20020;-77
2023/04/01 03:36:55;;;;;;;41.95;15.82;;;;;;;-144.73;100.00;54596.53;6187611;23;19997;-77
2023/04/01 03:39:21;;;;;;;39.30;17.40;;;;;;;-144.73;100.00;54592.44;6162709;23;20099;-77
2023/04/01 03:41:47;;;;;;;47.92;17.10;;;;;;;-144.73;100.00;54576.00;6154869;23;20036;-76
2023/04/01 03:44:13;;;;;;;30.73;14.20;;;;;;;-144.73;100.00;54592.44;6163630;23;20019;-77
2023/04/01 03:46:39;;;;;;;41.53;17.30;;;;;;;-144.73;100.00;54559.59;6190341;23;20095;-77
2023/04/01 03:49:11;;;;;;;29.70;14.02;;;;;;;-144.73;100.00;54580.13;6196304;23;20005;-78
2023/04/01 03:51:41;;;;;;;45.20;17.60;;;;;;;-144.73;100.00;54596.53;6202524;23;20005;-79
2023/04/01 03:54:08;;;;;;;43.70;15.82;;;;;;;-144.73;100.00;54621.16;6174821;23;20029;-79
2023/04/01 03:56:34;;;;;;;38.13;17.08;;;;;;;-144.73;100.00;54582.16;6175837;23;19993;-78
2023/04/01 03:59:03;;;;;;;37.00;17.75;;;;;;;-144.73;100.00;54588.31;6202687;23;20068;-81
2023/04/01 04:01:29;;;;;;;45.70;20.00;;;;;;;-144.73;100.00;54588.31;6190154;23;20021;-81
2023/04/01 04:03:56;;;;;;;48.13;18.92;;;;;;;-144.73;100.00;54549.31;6173444;23;20023;-78
2023/04/01 04:06:22;;;;;;;40.72;18.25;;;;;;;-144.73;100.00;54539.06;6162947;23;20009;-80
2023/04/01 04:08:48;;;;;;;37.67;16.23;;;;;;;-144.73;100.00;54649.91;6169098;23;20040;-78
2023/04/01 04:11:15;;;;;;;31.77;17.13;;;;;;;-144.73;100.00;54604.75;6159741;23;20017;-77
2023/04/01 04:13:42;;;;;;;47.40;20.23;;;;;;;-144.73;100.00;54559.59;6168908;23;20040;-79
2023/04/01 04:16:09;;;;;;;44.13;18.45;;;;;;;-144.73;100.00;54580.13;6184569;23;20009;-80
2023/04/01 04:18:36;;;;;;;46.40;18.83;;;;;;;-144.73;100.00;54567.81;6171603;23;20016;-78
2023/04/01 04:21:01;;;;;;;42.10;17.63;;;;;;;-144.73;100.00;54567.81;6163372;23;20050;-80
2023/04/01 04:23:29;;;;;;;44.90;21.02;;;;;;;-144.73;100.00;54580.13;6199410;23;20000;-81
2023/04/01 04:26:01;;;;;;;31.30;16.70;;;;;;;-144.73;100.00;54619.13;6166611;23;20066;-79
2023/04/01 04:28:28;;;;;;;40.47;19.73;;;;;;;-144.73;100.00;54608.84;6199454;23;20322;-81
2023/04/01 04:30:54;;;;;;;41.88;20.00;;;;;;;-144.73;100.00;54612.97;6165626;23;20073;-81
2023/04/01 04:33:21;;;;;;;56.00;22.73;;;;;;;-144.73;100.00;54588.31;6176570;23;20430;-78
2023/04/01 04:35:46;;;;;;;36.38;16.77;;;;;;;-144.73;100.00;54580.13;6195490;23;20040;-80
2023/04/01 04:38:13;;;;;;;47.22;20.70;;;;;;;-144.73;100.00;54576.00;6176494;23;20005;-80
2023/04/01 04:40:40;;;;;;;40.15;20.30;;;;;;;-144.73;100.00;54629.38;6195575;23;20013;-80
2023/04/01 04:43:06;;;;;;;48.40;21.65;;;;;;;-144.73;100.00;54557.53;6179037;23;20001;-80
2023/04/01 04:45:32;;;;;;;36.25;18.08;;;;;;;-144.73;100.00;54617.06;6171940;23;20028;-79
2023/04/01 04:48:00;;;;;;;41.67;19.88;;;;;;;-144.73;100.00;54612.97;6176533;23;20099;-78
2023/04/01 04:50:27;;;;;;;32.58;16.88;;;;;;;-144.73;100.00;54586.28;6170050;23;20032;-80
2023/04/01 04:52:52;;;;;;;40.53;19.98;;;;;;;-144.73;100.00;54588.31;6203365;23;20011;-79
2023/04/01 04:55:18;;;;;;;34.13;17.35;;;;;;;-144.73;100.00;54588.31;6170408;23;20013;-79
2023/04/01 04:57:44;;;;;;;26.83;15.40;;;;;;;-144.73;100.00;54576.00;6175415;23;20005;-81
2023/04/01 05:00:11;;;;;;;39.90;17.67;;;;;;;-144.73;100.00;54555.47;6196793;23;20009;-80
2023/04/01 05:02:36;;;;;;;41.85;20.73;;;;;;;-144.73;100.00;54600.63;6177364;23;20068;-79
2023/04/01 05:05:02;;;;;;;43.95;19.77;;;;;;;-144.73;100.00;54563.69;6171643;23;20021;-80
2023/04/01 05:07:28;;;;;;;48.78;21.08;;;;;;;-144.73;100.00;54639.63;6177800;23;20005;-79
2023/04/01 05:09:54;;;;;;;35.88;17.83;;;;;;;-144.73;100.00;54576.00;6171155;23;20013;-79
2023/04/01 05:12:19;;;;;;;41.90;19.73;;;;;;;-144.73;100.00;54580.13;6202148;23;20001;-78
2023/04/01 05:14:45;;;;;;;41.70;20.27;;;;;;;-144.73;100.00;54600.63;6172672;23;20024;-79
2023/04/01 05:17:12;;;;;;;52.15;21.60;;;;;;;-144.73;100.00;54539.06;6176047;23;20031;-77
2023/04/01 05:19:38;;;;;;;22.98;12.00;;;;;;;-144.73;100.00;54563.69;6200824;23;20043;-79
2023/04/01 05:22:05;;;;;;;10.10;6.60;;;;;;;-144.73;100.00;54608.84;6202237;23;20001;-80
2023/04/01 05:24:32;;;;;;;8.50;4.22;;;;;;;-144.73;100.00;54617.06;6174832;23;20037;-79
2023/04/01 05:26:59;;;;;;;4.63;3.60;;;;;;;-144.73;100.00;54580.13;6173787;23;20009;-77
2023/04/01 05:29:25;;;;;;;6.40;3.50;;;;;;;-144.73;100.00;54604.75;6161675;23;20017;-77
2023/04/01 05:31:51;;;;;;;6.35;3.53;;;;;;;-144.73;100.00;54567.81;6161329;23;20143;-75
2023/04/01 05:34:16;;;;;;;10.15;3.70;;;;;;;-144.73;100.00;54604.75;6158956;23;20028;-76
2023/04/01 05:36:42;;;;;;;4.43;2.88;;;;;;;-144.73;100.00;54584.22;6160056;23;20047;-74
2023/04/01 05:39:08;;;;;;;4.25;3.13;;;;;;;-144.73;100.00;54604.75;6186787;23;20377;-76
2023/04/01 05:41:38;;;;;;;5.55;3.47;;;;;;;-144.73;100.00;54588.31;6185816;23;20056;-78
2023/04/01 05:44:04;;;;;;;4.75;2.72;;;;;;;-144.73;100.00;54621.16;6196339;23;20014;-81
2023/04/01 05:46:30;;;;;;;4.88;3.00;;;;;;;-144.73;100.00;54576.00;6168276;23;20017;-82
2023/04/01 05:48:56;;;;;;;4.13;2.78;;;;;;;-144.73;100.00;54561.63;6174063;23;19997;-79
2023/04/01 05:51:22;;;;;;;4.55;3.22;;;;;;;-144.73;100.00;54576.00;6165839;23;20040;-79
2023/04/01 05:53:47;;;;;;;6.82;3.35;;;;;;;-144.73;100.00;54584.22;6202262;23;20012;-79
2023/04/01 05:56:13;;;;;;;6.75;3.40;;;;;;;-144.73;100.00;54586.28;6169010;23;20013;-80
2023/04/01 05:58:39;;;;;;;4.85;3.30;;;;;;;-144.73;100.00;54617.06;6177216;23;20088;-79
2023/04/01 06:01:09;;;;;;;8.68;4.28;;;;;;;-144.73;100.00;54590.38;6175413;23;20020;-81
2023/04/01 06:03:36;;;;;;;6.78;3.67;;;;;;;-144.73;100.00;54584.22;6186386;23;20013;-82
2023/04/01 06:06:08;;;;;;;6.95;3.70;;;;;;;-144.73;100.00;54608.84;6173091;23;20021;-81
2023/04/01 06:08:34;;;;;;;6.53;4.05;;;;;;;-144.73;100.00;54584.22;6208278;23;20009;-80
2023/04/01 06:11:23;;;;;;;5.88;3.63;;;;;;;-144.73;100.00;54604.75;6198029;23;20075;-82
2023/04/01 06:14:00;;;;;;;11.38;3.80;;;;;;;-144.73;100.00;54641.69;6186011;23;20007;-81
2023/04/01 06:17:04;;;;;;;7.28;4.30;;;;;;;-144.73;100.00;54604.75;6172551;23;20080;-83
2023/04/01 06:20:02;;;;;;;6.72;4.00;;;;;;;-144.73;100.00;54555.47;6205556;23;20013;-83
2023/04/01 06:22:37;;;;;;;8.50;3.65;;;;;;;-144.73;100.00;54571.91;6179186;23;20008;-81
2023/04/01 06:25:36;;;;;;;4.90;2.63;;;;;;;-144.73;100.00;54571.91;6199916;23;20013;-80
2023/04/01 06:28:20;;;;;;;4.93;2.33;;;;;;;-144.73;100.00;54610.91;6200130;23;20462;-80
2023/04/01 06:30:51;;;;;;;3.78;2.38;;;;;;;-144.73;100.00;54578.06;6194351;23;20065;-81
2023/04/01 06:33:28;;;;;;;4.00;1.60;;;;;;;-144.73;100.00;54573.97;6200682;23;20020;-81
2023/04/01 06:36:09;;;;;;;2.38;1.73;;;;;;;-144.73;100.00;54596.53;6192384;23;20044;-81
2023/04/01 06:38:40;;;;;;;6.25;2.10;;;;;;;-144.73;100.00;54592.44;6202551;23;20065;-80
2023/04/01 06:41:29;;;;;;;4.10;2.00;;;;;;;-144.73;100.00;54596.53;6193094;23;20021;-81
2023/04/01 06:43:59;;;;;;;3.33;2.40;;;;;;;-144.73;100.00;54600.63;6203702;23;20449;-81
2023/04/01 06:46:37;;;;;;;2.53;1.95;;;;;;;-144.73;100.00;54576.00;6189935;23;20013;-81
2023/04/01 06:49:05;;;;;;;4.15;2.33;;;;;;;-144.73;100.00;54571.91;6197895;23;20346;-79
2023/04/01 06:51:49;;;;;;;3.35;2.30;;;;;;;-144.73;100.00;54571.91;6187081;23;20040;-79
2023/04/01 06:54:24;;;;;;;2.85;1.85;;;;;;;-144.73;100.00;54582.16;6198075;23;20350;-80
2023/04/01 06:56:57;;;;;;;2.50;1.60;;;;;;;-144.73;100.00;54608.84;6173420;23;19997;-79
2023/04/01 06:59:30;;;;;;;3.45;1.80;;;;;;;-144.73;100.00;54580.13;6171229;23;20000;-78
2023/04/01 07:02:01;;;;;;;2.22;1.55;;;;;;;-144.73;100.00;54592.44;6199859;23;20009;-78
2023/04/01 07:04:31;;;;;;;2.28;1.83;;;;;;;-144.73;100.00;54588.31;6200022;23;20008;-79
2023/04/01 07:07:05;;;;;;;2.92;1.60;;;;;;;-144.73;100.00;54571.91;6197320;23;20012;-79
2023/04/01 07:09:36;;;;;;;2.05;1.52;;;;;;;-144.73;100.00;54580.13;6194414;23;20020;-81
2023/04/01 07:12:12;;;;;;;4.03;1.50;;;;;;;-144.73;100.00;54580.13;6185767;23;20028;-77
2023/04/01 07:14:41;;;;;;;2.42;1.33;;;;;;;-144.73;100.00;54584.22;6158771;23;20088;-76
2023/04/01 07:17:28;;;;;;;2.30;1.40;;;;;;;-144.73;100.00;54563.69;6186477;23;19997;-78
2023/04/01 07:20:11;;;;;;;2.17;1.50;;;;;;;-144.73;100.00;54563.69;6181753;23;20017;-76
2023/04/01 07:22:44;;;;;;;1.73;1.30;;;;;;;-144.73;100.00;54625.28;6187250;23;20009;-76
2023/04/01 07:25:44;;;;;;;5.03;1.80;;;;;;;-144.73;100.00;54629.38;6180912;23;20013;-75
2023/04/01 07:28:18;;;;;;;5.40;1.75;;;;;;;-144.73;100.00;54584.22;6172011;23;20012;-76
2023/04/01 07:30:51;;;;;;;3.47;1.50;;;;;;;-144.73;100.00;54596.53;6179397;23;20024;-75
2023/04/01 07:33:39;;;;;;;3.22;1.80;;;;;;;-144.73;100.00;54619.13;6185836;23;20001;-75
2023/04/01 07:36:23;;;;;;;2.58;1.65;;;;;;;-144.73;100.00;54580.13;6176088;23;20040;-75
2023/04/01 07:38:59;;;;;;;3.17;1.55;;;;;;;-144.73;100.00;54612.97;6184248;23;19997;-74
2023/04/01 07:41:27;;;;;;;2.33;1.45;;;;;;;-144.73;100.00;54588.31;6176992;23;20103;-74
2023/04/01 07:44:17;;;;;;;2.28;1.33;;;;;;;-144.73;100.00;54545.22;6186004;23;20005;-74
2023/04/01 07:47:00;;;;;;;4.38;2.03;;;;;;;-144.73;100.00;54604.75;6175474;23;20020;-73
2023/04/01 07:49:49;;;;;;;4.68;1.60;;;;;;;-144.73;100.00;54571.91;6156970;23;20021;-74
2023/04/01 07:52:35;;;;;;;3.25;1.63;;;;;;;-144.73;100.00;54592.44;6158798;23;20011;-73
2023/04/01 07:55:29;;;;;;;2.63;1.65;;;;;;;-144.73;100.00;54559.59;6180013;23;20032;-72
2023/04/01 07:58:14;;;;;;;2.90;1.45;;;;;;;-144.73;100.00;54592.44;6158087;23;20032;-74
2023/04/01 08:00:51;;;;;;;4.30;1.50;;;;;;;-144.73;100.00;54563.69;6152398;23;20023;-73
2023/04/01 08:03:24;;;;;;;4.00;1.65;;;;;;;-144.73;100.00;54563.69;6185958;23;20005;-73
2023/04/01 08:06:03;;;;;;;3.53;1.92;;;;;;;-144.73;100.00;54584.22;6150962;23;20017;-74
2023/04/01 08:08:43;;;;;;;2.60;1.38;;;;;;;-144.73;100.00;54608.84;6182450;23;20001;-74
2023/04/01 08:11:39;;;;;;;3.10;1.52;;;;;;;-144.73;100.00;54625.28;6147441;23;20035;-75
2023/04/01 08:14:23;;;;;;;1.85;1.27;;;;;;;-144.73;100.00;54580.13;6177408;23;20004;-75
2023/04/01 08:16:49;;;;;;;1.55;1.38;;;;;;;-144.73;100.00;54625.28;6209596;23;20012;-75
2023/04/01 08:19:20;;;;;;;2.25;1.58;;;;;;;-144.73;100.00;54604.75;6219554;23;20004;-76
2023/04/01 08:21:50;;;;;;;4.95;1.70;;;;;;;-144.73;100.00;54612.97;6246516;23;20043;-76
2023/04/01 08:24:32;;;;;;;3.45;1.35;;;;;;;-144.73;100.00;54600.63;6245358;23;20042;-75
2023/04/01 08:27:00;;;;;;;;;;;;;;;-144.73;100.00;54551.38;6219679;23;20000;-75
2023/04/01 08:29:52;;;;;;;2.05;1.38;;;;;;;-144.73;100.00;54588.31;6244919;23;19907;-75
2023/04/01 08:32:28;;;;;;;1.98;1.40;;;;;;;-144.73;100.00;54580.13;6213431;23;20003;-74
2023/04/01 08:35:15;;;;;;;1.73;1.35;;;;;;;-144.73;100.00;54621.16;6241813;23;20020;-75
2023/04/01 08:37:42;;;;;;;2.20;1.00;;;;;;;-144.73;100.00;54584.22;6217959;23;20004;-75
2023/04/01 08:40:45;;;;;;;1.95;1.30;;;;;;;-144.73;100.00;54625.28;6241081;23;20022;-74
2023/04/01 08:43:27;;;;;;;4.35;1.25;;;;;;;-144.73;100.00;54584.22;6218972;23;20008;-74
2023/04/01 08:46:33;;;;;;;1.08;0.98;;;;;;;-144.73;100.00;54604.75;6237136;23;20021;-73
2023/04/01 08:49:26;;;;;;;1.10;0.95;;;;;;;-144.73;100.00;54604.75;6243265;23;20022;-73
2023/04/01 08:52:26;;;;;;;3.55;1.23;;;;;;;-144.73;100.00;54608.84;6235692;23;20016;-73
2023/04/01 08:55:31;;;;;;;1.88;1.15;;;;;;;-144.73;100.00;54580.13;6236484;23;20043;-73
2023/04/01 08:58:11;;;;;;;2.00;1.27;;;;;;;-144.73;100.00;54608.84;6233215;23;20093;-74
2023/04/01 09:00:47;;;;;;;2.15;1.08;;;;;;;-144.73;100.00;54559.59;6238172;23;20016;-72
2023/04/01 09:03:24;;;;;;;2.90;1.30;;;;;;;-144.73;100.00;54539.06;6217750;23;20004;-71
2023/04/01 09:06:21;;;;;;;3.08;1.17;;;;;;;-144.73;100.00;54567.81;6209552;23;20016;-71
2023/04/01 09:09:14;;;;;;;2.95;1.13;;;;;;;-144.73;100.00;54588.31;6218867;23;20000;-72
2023/04/01 09:12:18;;;;;;;1.90;1.60;;;;;;;-144.73;100.00;54565.75;6234474;23;20012;-71
2023/04/01 09:15:05;;;;;;;6.00;1.20;;;;;;;-144.73;100.00;54571.91;6216068;23;20020;-72
2023/04/01 09:18:06;;;;;;;1.67;1.17;;;;;;;-144.73;100.00;54598.59;6217165;23;20007;-72
2023/04/01 09:20:43;;;;;;;3.10;1.20;;;;;;;-144.73;100.00;54543.16;6156292;23;20459;-73
2023/04/01 09:23:37;;;;;;;4.65;1.00;;;;;;;-144.73;100.00;54596.53;6220557;23;20007;-72
2023/04/01 09:26:27;;;;;;;1.70;1.35;;;;;;;-144.73;100.00;54596.53;6209937;23;20016;-71
2023/04/01 09:29:07;;;;;;;1.38;1.10;;;;;;;-144.73;100.00;54608.84;6220081;23;20011;-73
2023/04/01 09:31:45;;;;;;;1.92;1.10;;;;;;;-144.73;100.00;54582.16;6209865;23;20023;-73
2023/04/01 09:34:32;;;;;;;1.60;1.20;;;;;;;-144.73;100.00;54596.53;6219518;23;20058;-73
2023/04/01 09:37:19;;;;;;;1.30;1.10;;;;;;;-144.73;100.00;54571.91;6218312;23;20010;-73
2023/04/01 09:40:31;;;;;;;1.48;1.20;;;;;;;-144.73;100.00;54563.69;6215929;23;20031;-72
2023/04/01 09:43:19;;;;;;;1.60;1.10;;;;;;;-144.73;100.00;54654.00;6245517;23;20000;-72
2023/04/01 09:45:51;;;;;;;1.10;1.00;;;;;;;-144.73;100.00;54592.44;6212044;23;20023;-71
2023/04/01 09:48:42;;;;;;;1.55;1.02;;;;;;;-144.73;100.00;54567.81;6219571;23;20016;-72
2023/04/01 09:51:10;;;;;;;1.77;1.17;;;;;;;-144.73;100.00;54580.13;6233067;23;20058;-71
2023/04/01 09:53:47;;;;;;;2.63;1.02;;;;;;;-144.73;100.00;54588.31;6218749;23;20086;-71
2023/04/01 09:56:44;;;;;;;2.90;1.08;;;;;;;-144.73;100.00;54559.59;6236635;23;20413;-71
2023/04/01 09:59:31;;;;;;;1.83;0.73;;;;;;;-144.73;100.00;54590.38;6242258;23;20011;-71
2023/04/01 10:02:25;;;;;;;1.83;1.17;;;;;;;-144.73;100.00;54594.47;6246336;23;20019;-72
2023/04/01 10:05:13;;;;;;;8.10;1.50;;;;;;;-144.73;100.00;54623.22;6241749;23;20035;-71
2023/04/01 10:08:25;;;;;;;1.42;1.10;;;;;;;-144.73;100.00;54563.69;6245928;23;20007;-71
2023/04/01 10:11:09;;;;;;;1.33;1.10;;;;;;;-144.73;100.00;54576.00;6238019;23;20023;-72
2023/04/01 10:13:56;;;;;;;1.15;0.82;;;;;;;-144.73;100.00;54649.91;6217674;23;20022;-71
2023/04/01 10:16:31;;;;;;;1.35;0.82;;;;;;;-144.73;100.00;54617.06;6209329;23;20012;-71
2023/04/01 10:19:17;;;;;;;1.10;0.90;;;;;;;-144.73;100.00;54567.81;6246431;23;20444;-71
2023/04/01 10:22:33;;;;;;;1.45;0.80;;;;;;;-144.73;100.00;54576.00;6236584;23;20461;-71
2023/04/01 10:25:24;;;;;;;2.08;0.90;;;;;;;-144.73;100.00;54612.97;6203034;23;20086;-71
2023/04/01 10:27:57;;;;;;;0.60;0.60;;;;;;;-144.73;100.00;54555.47;6214274;23;20388;-71
2023/04/01 10:30:44;;;;;;;2.10;0.80;;;;;;;-144.73;100.00;54617.06;6238898;23;20016;-71
2023/04/01 10:33:15;;;;;;;0.88;0.52;;;;;;;-144.73;100.00;54604.75;6216832;23;19996;-72
2023/04/01 10:36:24;;;;;;;1.00;0.70;;;;;;;-144.73;100.00;54569.84;6238742;23;20008;-72
2023/04/01 10:38:59;;;;;;;1.38;0.60;;;;;;;-144.73;100.00;54635.53;6219086;23;20011;-72
2023/04/01 10:41:48;;;;;;;1.23;0.80;;;;;;;-144.73;100.00;54569.84;6237180;23;20012;-72
2023/04/01 10:44:35;;;;;;;1.88;1.00;;;;;;;-144.73;100.00;54612.97;6219263;23;20010;-71
2023/04/01 10:47:25;;;;;;;0.82;0.70;;;;;;;-144.73;100.00;54578.06;6219198;23;20405;-72
2023/04/01 10:50:09;;;;;;;0.63;0.63;;;;;;;-144.73;100.00;54604.75;6217283;23;20016;-71
2023/04/01 10:53:00;;;;;;;2.13;1.30;;;;;;;-144.73;100.00;54584.22;6219126;23;20012;-72
2023/04/01 10:55:40;;;;;;;0.88;0.77;;;;;;;-144.73;100.00;54600.63;6212528;23;20012;-71
2023/04/01 10:58:35;;;;;;;0.90;0.70;;;;;;;-144.73;100.00;54580.13;6246191;23;20010;-71
2023/04/01 11:01:45;;;;;;;1.65;0.98;;;;;;;-144.73;100.00;54580.13;6211961;23;20028;-71
2023/04/01 11:04:39;;;;;;;3.45;1.05;;;;;;;-144.73;100.00;54604.75;6246882;23;20000;-72
2023/04/01 11:07:29;;;;;;;2.30;0.90;;;;;;;-144.73;100.00;54580.13;6244640;23;20004;-71
2023/04/01 11:10:24;;;;;;;3.65;1.77;;;;;;;-144.73;100.00;54592.44;6241698;23;20016;-71
2023/04/01 11:13:21;;;;;;;1.05;0.90;;;;;;;-144.73;100.00;54567.81;6247028;23;20004;-71
2023/04/01 11:16:19;;;;;;;2.17;1.20;;;;;;;-144.73;100.00;54625.28;6237997;23;20031;-72
2023/04/01 11:19:22;;;;;;;2.25;1.05;;;;;;;-144.73;100.00;54592.44;6245667;23;20077;-72
2023/04/01 11:22:09;;;;;;;3.28;1.60;;;;;;;-144.73;100.00;54563.69;6209499;23;20041;-72
2023/04/01 11:24:43;;;;;;;1.48;1.23;;;;;;;-144.73;100.00;54576.00;6242301;23;20330;-72
2023/04/01 11:27:29;;;;;;;4.30;1.40;;;;;;;-144.73;100.00;54596.53;6216475;23;20028;-72
2023/04/01 11:30:22;;;;;;;1.48;1.15;;;;;;;-144.73;100.00;54571.91;6240447;23;20016;-72
2023/04/01 11:32:54;;;;;;;2.33;1.40;;;;;;;-144.73;100.00;54580.13;6218989;23;20011;-71
2023/04/01 11:35:36;;;;;;;2.13;1.42;;;;;;;-144.73;100.00;54600.63;6213338;23;20480;-71
2023/04/01 11:38:14;;;;;;;2.15;1.60;;;;;;;-144.73;100.00;54588.31;6219734;23;20004;-72
2023/04/01 11:41:02;;;;;;;5.95;2.33;;;;;;;-144.73;100.00;54600.63;6212515;23;20027;-71